カシュガル の空港の天気 - METARとTAF

カシュガル空港 ( ZWSH / KHG ) - 中国 新疆ウイグル自治区カシュガル市
飛行場実況気象(Metar)
観測時間07/29 11:00 CST (07/29 03:00 UTC)
風向・風速南南西 2m/s
視程10km以上
天気現象
なし
気温30℃
湿度33%
気圧1004hPa
METARZWSH 290300Z 21002MPS 180V240 CAVOK 30/12 Q1004 NOSIG
過去の天気等 Google飛行場航空写真 Wunderground天気予報

過去48時間のMETAR

飛行場予報(TAF)
発表時間: 7/29 05:07 CST (7/28 21:07 UTC)
予報対象時間: 29日8時 CST ~ 30日8時 CST
風向・風速北西 5m/s
視程10km以上
少しの積乱雲 雲底高度 1220m
29日9時 CST ~ 29日10時 CST に徐々に
風向・風速東 4m/s
29日23時 CST ~ 29日24時 CST に徐々に
風向・風速北西 8m/s 瞬間風速 13m/s
TAF ZWSH 282107Z 2900/2924 32005MPS 9999 FEW040CB TX36/2909Z TN27/2900Z
BECMG 2901/2902 10004MPS
BECMG 2915/2916 32008G13MPS